Aérodrome :
LOGIN :

S'inscrire | Disclaimer

   EN    FR    IT 

 










Légende :    VFR   VFR Marginal   IFR   IFR Intensif   IFR Très Intensif
Visi : 
Plafond : 
>= 8 km
>= 3000ft
5 à 8 km
1000 à 3000 ft
1500m à 5 km
500 à 1000 ft
800 à 1500m
200 à 500 ft
< 800m
< 200 ft
Symboles :   Orages  Brouillard  Fortes neiges  Fortes précipitations  Vent > 20 kt
SIGMETs :   Divers  Orages  Givrage  Turbulence  Onde Orograph.  Cendres Volcan.






- Altitude de l'aérodrome : 779 ft
- Code IATA : CMF


LFLB - Chambery / Aix-Les-Bains

DERNIER METAR :
  • 081230Z AUTO 34010KT 9999 BKN080/// ///TCU 13/05 Q1016 BECMG BKN040

METARs EXPIRÉS :
  • 081200Z AUTO 34011KT 9999 FEW080 13/06 Q1016 NOSIG
  • 081130Z AUTO 35012KT 9999 FEW029 12/06 Q1016 NOSIG
  • 081100Z AUTO 34011KT 9999 FEW028 BKN054 12/05 Q1017 NOSIG
  • 081030Z AUTO 34010KT 9999 BKN025 12/06 Q1017 NOSIG
  • 081000Z AUTO 34010KT 9999 SCT023 BKN052 BKN066 11/06 Q1017 NOSIG

TAF TAF LFLB
Valide du 08 à 09h jusqu'au 09 à 09h UTC


080800Z 0809/0909 35008KT 9999 BKN040
BECMG 0907/0909 CAVOK



MET'MAP, la Météo Aéronautique d'un coup d'oeil ! - Copyright ORBIFLY Décembre 2007 - Disclaimer

ORBIFLY MET'MAP TEAM :

Programmation & Développement : Alexandra Zaïnal
Sur une idée originale de : Baudouin d'Aumeries
Assistance à la programmation : Marc-Olivier Méhu
Soutien technique & logistique : Manuel Goepfert

Contact : metmap@orbifly.com




SOURCES & CREDITS :

   NOAA